Flight Track Log - Related Links

Times and Time Zones

All times are in EDT time to prevent confusion due to time zone crossing. See the N39PH flight status page for this flight to view local times or setup timezone preferences in your user account.

Time Position Orientation Groundspeed Altitude Reporting Facility
EDT Latitude Longitude Course Direction KTS MPH feet Rate Location/Type
Fri 03:33:52 PM 38.5522 -107.9158 73° East 165 190 7,400  Level Denver Center
Fri 03:34:54 PM 38.5219 -107.9517 223° Southwest 217 250 9,200 1,694 Climbing Denver Center
Fri 03:35:56 PM 38.5053 -107.8953 111° Southeast 181 208 10,900 1,790 Climbing Denver Center
Fri 03:36:00 PM 38.6402 -107.4228 72° East  Level FlightAware Approximate
Fri 03:36:58 PM 38.5236 -107.8333 69° East 192 221 12,900  Level Denver Center
Fri 03:37:00 PM 38.6699 -107.3531 73° East  Level FlightAware Approximate
Fri 03:38:00 PM 38.6886 -107.2739 73° East  Level FlightAware Approximate
Fri 03:38:00 PM 38.5408 -107.7597 73° East 182 209 14,900  Level Denver Center
Fri 03:39:00 PM 38.7072 -107.1948 73° East  Level FlightAware Approximate
Fri 03:39:02 PM 38.5611 -107.6989 67° East 183 211 16,300  Level Denver Center
Fri 03:40:04 PM 38.5789 -107.6389 69° East 190 219 17,600 1,258 Climbing Denver Center
Fri 03:41:06 PM 38.6019 -107.5650 68° East 198 228 18,900 1,113 Climbing Denver Center
Fri 03:42:08 PM 38.6222 -107.4986 69° East 204 235 19,900 1,113 Climbing Denver Center
Fri 03:43:10 PM 38.6461 -107.4206 69° East 208 239 21,200 532 Climbing Denver Center
Fri 03:44:12 PM 38.6700 -107.3483 67° East 223 257 21,000 -97 Descending Denver Center
Fri 03:45:14 PM 38.6958 -107.2467 72° East 259 298 21,000  Level Denver Center
Fri 03:46:16 PM 38.7267 -107.1600 65° Northeast 266 306 21,000  Level Denver Center
Fri 03:47:18 PM 38.7519 -107.0678 71° East 271 312 21,000  Level Denver Center
Fri 03:48:20 PM 38.7792 -106.9783 69° East 271 312 21,000  Level Denver Center
Fri 03:49:34 PM 38.8067 -106.8886 69° East 270 311 21,000  Level Denver Center
Fri 03:50:37 PM 38.8425 -106.7628 70° East 270 311 21,000  Level Denver Center
Fri 03:51:39 PM 38.8686 -106.6719 70° East 271 312 21,000  Level Denver Center
Fri 03:52:41 PM 38.8903 -106.6003 69° East 273 314 21,000  Level Denver Center
Fri 03:53:43 PM 38.9233 -106.4822 70° East 276 318 21,000  Level Denver Center
Fri 03:54:45 PM 38.9494 -106.3967 69° East 271 312 21,000  Level Denver Center
Fri 03:55:47 PM 38.9789 -106.2942 70° East 274 315 21,000  Level Denver Center
Fri 03:56:49 PM 39.0028 -106.2069 71° East 272 313 21,000 -387 Level Denver Center
Fri 03:57:51 PM 39.0314 -106.1125 69° East 278 320 20,200 -968 Descending Denver Center
Fri 03:58:53 PM 39.0711 -105.9989 66° East 293 337 19,000 -576 Descending Denver Center
Fri 03:59:56 PM 39.1139 -105.9200 55° Northeast 269 310 19,000  Level Denver Center
Fri 04:00:58 PM 39.1456 -105.8356 64° Northeast 261 300 19,000  Level Denver Center
Fri 04:02:00 PM 39.1825 -105.7544 60° Northeast 261 300 19,000  Level Denver Center
Fri 04:03:02 PM 39.2178 -105.6717 61° Northeast 261 300 19,000  Level Denver Center
Fri 04:04:16 PM 39.2533 -105.5872 61° Northeast 264 304 19,000 -438 Level Denver Center
Fri 04:05:19 PM 39.3014 -105.4769 61° Northeast 274 315 18,000 -1,200 Descending Denver Center
Fri 04:06:21 PM 39.3411 -105.3894 60° Northeast 279 321 16,500 -1,355 Descending Denver Center
Fri 04:07:23 PM 39.3633 -105.2908 74° East 270 311 15,200 -1,355 Descending Denver Center
Fri 04:08:25 PM 39.3706 -105.1958 84° East 266 306 13,700 -1,452 Descending Denver Center
Fri 04:09:27 PM 39.3819 -105.0947 82° East 264 304 12,200 -1,403 Descending Denver Center
Fri 04:10:29 PM 39.3931 -105.0067 81° East 252 290 10,800 -1,113 Descending Denver Center
Fri 04:11:31 PM 39.4056 -104.9311 78° East 220 253 9,900 -871 Descending Denver Center
Fri 04:12:33 PM 39.4450 -104.8817 44° Northeast 189 217 9,000 -1,016 Descending Denver Center
Fri 04:13:35 PM 39.4886 -104.8531 27° Northeast 180 207 7,800 -1,210 Descending Denver Center
Fri 04:14:37 PM 39.5319 -104.8469 North 145 167 6,500 -968 Descending Denver Center
Fri 04:15:39 PM 39.5650 -104.8497 356° North 125 144 5,800 -677 Descending Denver Center

Login

Don't have an account? Register now (free) for customized features, flight alerts, and more!